Time;durP1;ratioP1;P1;durP2;ratioP2;P2;SDS_P1;SDS_P2;PMS_P1;PMS_P2;Temp;Humidity;BMP_temperature;BMP_pressure;BME280_temperature;BME280_humidity;BME280_pressure;Samples;Min_cycle;Max_cycle;Signal;HPM_P1;HPM_P2
2022/12/18 00:00:47;;;;;;;37.00;12.63;;;2.20;99.90;;;;;;5054601;28;20021;-60
2022/12/18 00:03:14;;;;;;;33.08;12.93;;;2.30;1.00;;;;;;5054610;28;20304;-61
2022/12/18 00:05:50;;;;;;;35.58;13.48;;;2.40;99.90;;;;;;5054451;28;20036;-61
2022/12/18 00:08:16;;;;;;;32.85;13.13;;;2.30;99.90;;;;;;5054653;28;20025;-67
2022/12/18 00:10:42;;;;;;;29.33;12.25;;;2.10;99.90;;;;;;5054495;28;20032;-61
2022/12/18 00:13:08;;;;;;;29.50;11.82;;;2.20;1.00;;;;;;5054478;28;20163;-62
2022/12/18 00:15:35;;;;;;;31.63;12.13;;;2.20;1.00;;;;;;5054514;28;20033;-61
2022/12/18 00:18:00;;;;;;;28.98;12.27;;;2.20;1.00;;;;;;5054288;28;20025;-60
2022/12/18 00:20:26;;;;;;;33.40;12.40;;;2.20;1.00;;;;;;5054387;28;20028;-61
2022/12/18 00:22:53;;;;;;;28.10;10.70;;;2.20;1.00;;;;;;5054148;28;20028;-61
2022/12/18 00:25:18;;;;;;;30.45;11.50;;;2.40;1.00;;;;;;5054179;28;20068;-61
2022/12/18 00:27:44;;;;;;;32.05;11.40;;;2.50;1.00;;;;;;5054146;28;20485;-60
2022/12/18 00:30:10;;;;;;;29.92;12.13;;;2.30;99.90;;;;;;5054171;28;20082;-61
2022/12/18 00:32:36;;;;;;;28.60;10.52;;;2.10;99.90;;;;;;5053859;28;20029;-61
2022/12/18 00:35:03;;;;;;;29.98;11.43;;;1.90;99.90;;;;;;5054235;28;20029;-60
2022/12/18 00:37:29;;;;;;;30.38;11.30;;;1.90;1.00;;;;;;5054229;28;20128;-61
2022/12/18 00:39:54;;;;;;;28.23;10.15;;;2.10;1.00;;;;;;5053915;28;20673;-61
2022/12/18 00:45:05;;;;;;;24.90;10.68;;;2.20;1.00;;;;;;5053857;28;20125;-61
2022/12/18 00:47:31;;;;;;;26.25;10.45;;;2.30;1.00;;;;;;5052425;28;20029;-62
2022/12/18 00:49:56;;;;;;;28.45;10.98;;;2.30;1.00;;;;;;5053709;28;20075;-60
2022/12/18 00:52:22;;;;;;;30.65;10.88;;;2.30;1.00;;;;;;5053224;28;20041;-61
2022/12/18 00:54:47;;;;;;;29.98;11.35;;;2.30;1.00;;;;;;5053588;28;20120;-61
2022/12/18 00:57:13;;;;;;;29.08;11.10;;;2.30;1.00;;;;;;5053695;28;20373;-64
2022/12/18 00:59:39;;;;;;;30.52;11.75;;;2.50;1.00;;;;;;5053548;28;20025;-61
2022/12/18 01:02:04;;;;;;;26.05;10.38;;;2.50;99.90;;;;;;5053252;28;20071;-61
2022/12/18 01:04:34;;;;;;;32.60;11.13;;;2.50;99.90;;;;;;5053256;28;20044;-61
2022/12/18 01:06:59;;;;;;;27.10;10.30;;;2.60;99.90;;;;;;5053497;28;20497;-60
2022/12/18 01:09:25;;;;;;;30.30;10.35;;;2.50;99.90;;;;;;5052162;28;20078;-62
2022/12/18 01:11:51;;;;;;;22.80;10.10;;;2.40;99.90;;;;;;5053519;28;20022;-59
2022/12/18 01:14:17;;;;;;;27.60;10.43;;;2.40;99.90;;;;;;5053318;28;20028;-60
2022/12/18 01:16:42;;;;;;;27.52;10.77;;;2.60;99.90;;;;;;5053274;28;20082;-60
2022/12/18 01:19:08;;;;;;;27.15;10.90;;;2.50;99.90;;;;;;5053113;28;20025;-61
2022/12/18 01:21:34;;;;;;;23.38;10.30;;;2.50;99.90;;;;;;5053289;28;20017;-61
2022/12/18 01:24:00;;;;;;;24.92;10.57;;;2.50;99.90;;;;;;5052927;28;20033;-61
2022/12/18 01:26:29;;;;;;;20.35;9.63;;;2.50;99.90;;;;;;5053221;28;20507;-61
2022/12/18 01:28:56;;;;;;;28.77;10.20;;;2.40;99.90;;;;;;5052933;28;20104;-61
2022/12/18 01:31:25;;;;;;;20.88;8.10;;;2.30;99.90;;;;;;5053237;28;20029;-62
2022/12/18 01:33:51;;;;;;;23.10;9.90;;;2.50;99.90;;;;;;5052750;28;20033;-62
2022/12/18 01:36:23;;;;;;;23.08;9.43;;;2.60;99.90;;;;;;5051645;28;20029;-60
2022/12/18 01:38:50;;;;;;;19.58;8.45;;;2.60;99.90;;;;;;5052863;28;20021;-61
2022/12/18 01:41:19;;;;;;;21.88;8.43;;;2.50;99.90;;;;;;5052728;28;20025;-61
2022/12/18 01:43:57;;;;;;;20.33;8.68;;;2.40;99.90;;;;;;5052859;28;20107;-60
2022/12/18 01:46:26;;;;;;;16.67;7.30;;;2.20;99.90;;;;;;5052631;28;20025;-59
2022/12/18 01:49:00;;;;;;;16.05;7.07;;;2.10;99.90;;;;;;5052427;28;20074;-60
2022/12/18 01:51:28;;;;;;;24.00;7.97;;;2.10;99.90;;;;;;5052691;28;20486;-61
2022/12/18 01:53:55;;;;;;;21.70;7.45;;;2.30;99.90;;;;;;5052287;28;20104;-61
2022/12/18 01:56:21;;;;;;;17.45;7.10;;;2.40;99.90;;;;;;5051907;28;20504;-60
2022/12/18 01:58:59;;;;;;;19.50;6.45;;;2.40;99.90;;;;;;5052359;28;20387;-61
2022/12/18 02:01:25;;;;;;;19.70;8.00;;;2.50;99.90;;;;;;5052409;28;20105;-62
2022/12/18 02:03:51;;;;;;;20.63;7.13;;;2.70;99.90;;;;;;5052548;28;20485;-62
2022/12/18 02:06:49;;;;;;;19.65;7.03;;;2.90;99.90;;;;;;5052269;28;20099;-63
2022/12/18 02:09:26;;;;;;;18.08;6.80;;;2.90;99.90;;;;;;5044189;28;20040;-65
2022/12/18 02:12:04;;;;;;;19.67;7.65;;;3.10;99.90;;;;;;5052371;28;20547;-62
2022/12/18 02:14:57;;;;;;;19.10;7.55;;;3.10;99.90;;;;;;5052310;28;20029;-61
2022/12/18 02:17:40;;;;;;;15.90;7.15;;;3.00;99.90;;;;;;5052501;28;20098;-60
2022/12/18 02:20:23;;;;;;;21.45;7.80;;;2.90;99.90;;;;;;5052309;28;20110;-63
2022/12/18 02:23:10;;;;;;;19.58;7.88;;;2.80;99.90;;;;;;5051940;28;20017;-60
2022/12/18 02:25:42;;;;;;;16.88;7.70;;;2.70;99.90;;;;;;5052294;28;20124;-60
2022/12/18 02:28:12;;;;;;;18.25;7.13;;;2.60;99.90;;;;;;5052076;28;20419;-60
2022/12/18 02:30:40;;;;;;;20.02;7.35;;;2.70;99.90;;;;;;5051814;28;20174;-63
2022/12/18 02:33:09;;;;;;;16.30;6.43;;;2.70;99.90;;;;;;5051887;28;20021;-60
2022/12/18 02:35:37;;;;;;;17.42;6.70;;;2.70;99.90;;;;;;5051927;28;20100;-61
2022/12/18 02:38:04;;;;;;;15.95;6.55;;;2.60;99.90;;;;;;5051915;28;20029;-64
2022/12/18 02:40:30;;;;;;;16.55;6.38;;;2.60;99.90;;;;;;5051768;28;20301;-61
2022/12/18 02:43:06;;;;;;;19.52;6.47;;;2.80;99.90;;;;;;5051591;28;20104;-60
2022/12/18 02:45:32;;;;;;;18.92;7.32;;;2.90;99.90;;;;;;5051859;28;20037;-60
2022/12/18 02:47:58;;;;;;;21.48;8.85;;;3.00;99.90;;;;;;5051647;28;20032;-62
2022/12/18 02:50:40;;;;;;;21.52;7.70;;;3.10;99.90;;;;;;5051785;28;20524;-61
2022/12/18 02:53:14;;;;;;;18.45;7.43;;;3.10;99.90;;;;;;5051398;28;20029;-61
2022/12/18 02:56:01;;;;;;;19.25;6.35;;;3.20;99.90;;;;;;5051690;28;20021;-60
2022/12/18 02:58:33;;;;;;;17.63;6.93;;;3.20;99.90;;;;;;5031603;28;20048;-60
2022/12/18 03:01:11;;;;;;;14.95;7.28;;;3.10;99.90;;;;;;5031051;28;20041;-61
2022/12/18 03:03:46;;;;;;;17.98;7.25;;;3.10;99.90;;;;;;5050920;28;20044;-61
2022/12/18 03:06:27;;;;;;;15.40;7.35;;;3.10;99.90;;;;;;5051450;28;20107;-60
2022/12/18 03:08:58;;;;;;;24.38;6.97;;;3.10;99.90;;;;;;5050521;28;20099;-62
2022/12/18 03:14:15;;;;;;;19.75;8.52;;;3.20;99.90;;;;;;5051532;28;20044;-61
2022/12/18 03:16:44;;;;;;;17.05;7.70;;;3.30;99.90;;;;;;5051202;28;20029;-61
2022/12/18 03:19:21;;;;;;;16.67;7.10;;;3.40;99.90;;;;;;5051213;28;20025;-60
2022/12/18 03:21:50;;;;;;;17.77;7.07;;;3.40;99.90;;;;;;5051322;28;20039;-61
2022/12/18 03:24:18;;;;;;;14.60;7.55;;;3.40;99.90;;;;;;5051193;28;20108;-60
2022/12/18 03:26:47;;;;;;;23.50;7.72;;;3.40;99.90;;;;;;5051230;28;20025;-60
2022/12/18 03:29:18;;;;;;;18.75;7.38;;;3.30;99.90;;;;;;5050816;28;20017;-60
2022/12/18 03:31:53;;;;;;;18.23;7.23;;;3.30;99.90;;;;;;5051066;28;20039;-61
2022/12/18 03:34:30;;;;;;;21.52;6.65;;;3.20;99.90;;;;;;5050630;28;20028;-61
2022/12/18 03:36:56;;;;;;;15.20;7.28;;;3.20;99.90;;;;;;5051197;28;20254;-60
2022/12/18 03:39:22;;;;;;;21.98;7.65;;;3.40;99.90;;;;;;5051031;28;20060;-63
2022/12/18 03:41:59;;;;;;;20.75;7.63;;;3.40;99.90;;;;;;5050862;28;20021;-60
2022/12/18 03:44:49;;;;;;;18.75;7.80;;;3.40;99.90;;;;;;5050500;28;20044;-60
2022/12/18 03:47:43;;;;;;;14.93;7.82;;;3.40;99.90;;;;;;5050913;28;20032;-61
2022/12/18 03:50:16;;;;;;;18.75;8.10;;;3.40;99.90;;;;;;5050910;28;20447;-60
2022/12/18 03:53:24;;;;;;;20.65;8.55;;;3.30;99.90;;;;;;5048599;28;20051;-60
2022/12/18 03:55:51;;;;;;;18.63;8.02;;;3.40;99.90;;;;;;5028736;28;20037;-60
2022/12/18 03:58:22;;;;;;;15.88;7.38;;;3.40;99.90;;;;;;5050439;28;20021;-62
2022/12/18 04:00:51;;;;;;;22.27;8.88;;;3.60;99.90;;;;;;5049228;28;20063;-61
2022/12/18 04:03:19;;;;;;;15.45;7.95;;;3.60;99.90;;;;;;5050449;28;20037;-60
2022/12/18 04:05:48;;;;;;;23.23;9.23;;;3.50;99.90;;;;;;5050465;28;20037;-60
2022/12/18 04:08:14;;;;;;;15.98;7.90;;;3.50;99.90;;;;;;5050707;28;20021;-61
2022/12/18 04:10:40;;;;;;;16.70;7.70;;;3.40;99.90;;;;;;5050615;28;20485;-61
2022/12/18 04:13:05;;;;;;;17.20;7.55;;;3.60;99.90;;;;;;5050330;28;20055;-60
2022/12/18 04:15:34;;;;;;;16.95;7.47;;;3.50;99.90;;;;;;5050495;28;20431;-61
2022/12/18 04:18:00;;;;;;;18.33;8.43;;;3.60;99.90;;;;;;5050418;28;20596;-61
2022/12/18 04:20:25;;;;;;;18.17;8.50;;;3.70;99.90;;;;;;5052963;28;20025;-61
2022/12/18 04:22:52;;;;;;;13.43;6.90;;;3.70;99.90;;;;;;5054170;28;20048;-62
2022/12/18 04:25:18;;;;;;;14.50;7.15;;;3.70;99.90;;;;;;5054325;28;20033;-61
2022/12/18 04:27:43;;;;;;;17.13;7.53;;;3.60;99.90;;;;;;5053889;28;20029;-61
2022/12/18 04:30:10;;;;;;;14.27;7.20;;;3.60;99.90;;;;;;5052898;28;20386;-60
2022/12/18 04:32:35;;;;;;;14.77;7.25;;;3.40;99.90;;;;;;5054116;28;20105;-61
2022/12/18 04:35:03;;;;;;;17.60;7.22;;;3.60;99.90;;;;;;5053945;28;20112;-61
2022/12/18 04:37:29;;;;;;;15.52;6.97;;;3.60;99.90;;;;;;5052803;28;20029;-60
2022/12/18 04:39:55;;;;;;;18.60;7.40;;;3.70;99.90;;;;;;5053680;28;20070;-60
2022/12/18 04:42:21;;;;;;;25.02;8.55;;;3.60;99.90;;;;;;5053835;28;20036;-60
2022/12/18 04:44:46;;;;;;;17.02;6.88;;;3.60;99.90;;;;;;5053600;28;20041;-61
2022/12/18 04:47:13;;;;;;;15.48;7.10;;;3.60;99.90;;;;;;5053846;28;20028;-60
2022/12/18 04:49:39;;;;;;;16.50;7.50;;;3.70;99.90;;;;;;5053559;28;20044;-60
2022/12/18 04:52:07;;;;;;;14.60;6.93;;;3.70;99.90;;;;;;5053602;28;20021;-61
2022/12/18 04:54:33;;;;;;;17.45;6.18;;;3.80;99.90;;;;;;5053768;28;20489;-61
2022/12/18 04:56:59;;;;;;;14.50;7.13;;;3.90;99.90;;;;;;5053488;28;20493;-61
2022/12/18 04:59:24;;;;;;;16.15;7.00;;;4.00;99.90;;;;;;5053340;28;20107;-60
2022/12/18 05:01:51;;;;;;;18.02;7.32;;;4.00;99.90;;;;;;5053139;28;20045;-60
2022/12/18 05:04:17;;;;;;;15.48;6.47;;;4.10;99.90;;;;;;5053355;28;20110;-60
2022/12/18 05:06:43;;;;;;;18.85;7.18;;;4.10;99.90;;;;;;5053409;28;20060;-60
2022/12/18 05:09:08;;;;;;;16.75;6.93;;;4.10;99.90;;;;;;5053504;28;20110;-61
2022/12/18 05:11:37;;;;;;;13.43;6.40;;;4.10;99.90;;;;;;5053272;28;20094;-61
2022/12/18 05:14:03;;;;;;;16.55;6.82;;;4.10;99.90;;;;;;5053145;28;20501;-60
2022/12/18 05:16:29;;;;;;;14.18;6.95;;;4.10;99.90;;;;;;5053382;28;20025;-59
2022/12/18 05:18:55;;;;;;;17.13;7.22;;;4.10;99.90;;;;;;5053234;28;20032;-60
2022/12/18 05:21:21;;;;;;;17.98;7.22;;;4.10;99.90;;;;;;5052967;28;20021;-61
2022/12/18 05:23:46;;;;;;;14.98;7.60;;;4.00;99.90;;;;;;5052975;28;20025;-60
2022/12/18 05:26:17;;;;;;;19.10;7.43;;;4.10;99.90;;;;;;5053005;28;20021;-61
2022/12/18 05:28:43;;;;;;;17.73;7.30;;;4.10;99.90;;;;;;5053063;28;20029;-59
2022/12/18 05:31:09;;;;;;;13.75;6.25;;;4.10;99.90;;;;;;5051995;28;20382;-60
2022/12/18 05:33:35;;;;;;;17.48;7.45;;;4.10;99.90;;;;;;5053093;28;20431;-60
2022/12/18 05:36:06;;;;;;;13.55;6.43;;;4.20;99.90;;;;;;5052665;28;20017;-61
2022/12/18 05:38:35;;;;;;;16.83;6.90;;;4.30;99.90;;;;;;5052745;28;20025;-61
2022/12/18 05:41:00;;;;;;;14.40;5.65;;;4.30;99.90;;;;;;5052657;28;20338;-60
2022/12/18 05:43:27;;;;;;;12.80;6.40;;;4.30;99.90;;;;;;5053056;28;20534;-60
2022/12/18 05:45:53;;;;;;;13.77;6.40;;;4.30;99.90;;;;;;5052500;28;20047;-62
2022/12/18 05:48:19;;;;;;;14.68;6.57;;;4.40;99.90;;;;;;5052721;28;20028;-61
2022/12/18 05:50:47;;;;;;;13.25;6.57;;;4.50;99.90;;;;;;5052550;28;20036;-61
2022/12/18 05:53:14;;;;;;;13.57;6.65;;;4.50;99.90;;;;;;5052589;28;20394;-60
2022/12/18 05:55:42;;;;;;;14.20;6.90;;;4.50;99.90;;;;;;5051305;28;20474;-60
2022/12/18 05:58:09;;;;;;;13.18;6.45;;;4.50;99.90;;;;;;5052317;28;20029;-61
2022/12/18 06:00:41;;;;;;;16.98;6.97;;;4.60;99.90;;;;;;5052353;28;20104;-61
2022/12/18 06:03:08;;;;;;;13.80;6.18;;;4.60;99.90;;;;;;5052210;28;20097;-60
2022/12/18 06:05:38;;;;;;;14.50;6.18;;;4.60;99.90;;;;;;5051063;28;20538;-61
2022/12/18 06:08:04;;;;;;;17.13;7.15;;;4.60;99.90;;;;;;5052215;28;20056;-61
2022/12/18 06:10:31;;;;;;;12.95;5.70;;;4.60;99.90;;;;;;5052377;28;20039;-60
2022/12/18 06:12:56;;;;;;;13.18;6.38;;;4.60;99.90;;;;;;5051104;28;20466;-61
2022/12/18 06:15:22;;;;;;;17.48;7.00;;;4.60;99.90;;;;;;5052175;28;20090;-62
2022/12/18 06:17:47;;;;;;;16.42;6.93;;;4.70;99.90;;;;;;5051592;28;20025;-61
2022/12/18 06:20:13;;;;;;;13.90;7.05;;;4.70;99.90;;;;;;5052044;28;20106;-61
2022/12/18 06:22:39;;;;;;;16.33;7.00;;;4.80;99.90;;;;;;5051564;28;20071;-60
2022/12/18 06:25:05;;;;;;;14.18;6.90;;;4.80;99.90;;;;;;5052204;28;20607;-60
2022/12/18 06:27:33;;;;;;;22.63;7.15;;;4.90;99.90;;;;;;5051926;28;20025;-61
2022/12/18 06:29:59;;;;;;;16.48;6.68;;;4.90;99.90;;;;;;5051889;28;20036;-61
2022/12/18 06:32:25;;;;;;;16.92;8.00;;;4.80;99.90;;;;;;5051909;28;20021;-61
2022/12/18 06:34:51;;;;;;;15.48;7.18;;;4.80;99.90;;;;;;5052063;28;20040;-61
2022/12/18 06:37:16;;;;;;;18.42;7.60;;;4.80;99.90;;;;;;5051805;28;20028;-62
2022/12/18 06:39:42;;;;;;;12.48;6.50;;;4.90;99.90;;;;;;5051929;28;20025;-61
2022/12/18 06:42:08;;;;;;;14.45;7.03;;;4.90;99.90;;;;;;5051521;28;20017;-59
2022/12/18 06:44:34;;;;;;;17.02;7.07;;;5.00;99.90;;;;;;5051743;28;20055;-61
2022/12/18 06:46:59;;;;;;;17.40;7.65;;;5.00;99.90;;;;;;5051806;28;20021;-60
2022/12/18 06:49:25;;;;;;;17.13;7.63;;;5.00;99.90;;;;;;5051621;28;20036;-61
2022/12/18 06:51:51;;;;;;;16.00;7.72;;;5.00;99.90;;;;;;5051466;28;20013;-61
2022/12/18 06:54:17;;;;;;;18.05;7.95;;;5.00;99.90;;;;;;5051819;28;20025;-61
2022/12/18 06:56:45;;;;;;;16.75;7.43;;;5.00;99.90;;;;;;5051374;28;20032;-61
2022/12/18 06:59:12;;;;;;;14.48;7.43;;;5.10;99.90;;;;;;5051668;28;20029;-62
2022/12/18 07:01:37;;;;;;;20.88;8.63;;;5.10;99.90;;;;;;5051327;28;20053;-61
2022/12/18 07:04:03;;;;;;;18.92;8.77;;;5.00;99.90;;;;;;5051311;28;20033;-60
2022/12/18 07:06:29;;;;;;;17.92;8.10;;;5.00;99.90;;;;;;5051355;28;20106;-61
2022/12/18 07:08:55;;;;;;;20.08;9.30;;;5.00;99.90;;;;;;5051283;28;20039;-62
2022/12/18 07:11:20;;;;;;;22.42;9.23;;;4.90;99.90;;;;;;5051496;28;20028;-60
2022/12/18 07:13:47;;;;;;;22.95;8.85;;;5.00;99.90;;;;;;5049578;28;20448;-61
2022/12/18 07:16:15;;;;;;;20.27;9.75;;;4.90;99.90;;;;;;5050120;28;20474;-60
2022/12/18 07:18:41;;;;;;;21.10;9.15;;;5.00;99.90;;;;;;5050095;28;20025;-61
2022/12/18 07:21:09;;;;;;;23.25;9.95;;;4.90;99.90;;;;;;5051140;28;20031;-61
2022/12/18 07:23:35;;;;;;;23.85;10.73;;;4.90;99.90;;;;;;5051530;28;20024;-61
2022/12/18 07:26:07;;;;;;;24.20;10.48;;;4.90;99.90;;;;;;5051260;28;20044;-62
2022/12/18 07:28:33;;;;;;;23.75;10.25;;;4.90;99.90;;;;;;5051107;28;20377;-61
2022/12/18 07:31:06;;;;;;;22.13;10.25;;;4.90;99.90;;;;;;5051145;28;20488;-60
2022/12/18 07:33:33;;;;;;;21.55;10.50;;;5.00;99.90;;;;;;5051115;28;20029;-61
2022/12/18 07:36:00;;;;;;;25.75;11.35;;;5.00;99.90;;;;;;5051256;28;20420;-61
2022/12/18 07:38:26;;;;;;;18.02;9.15;;;5.00;99.90;;;;;;5051155;28;20048;-62
2022/12/18 07:40:51;;;;;;;22.50;11.05;;;5.00;99.90;;;;;;5050715;28;20469;-62
2022/12/18 07:43:17;;;;;;;22.58;11.15;;;5.00;99.90;;;;;;5050821;28;20036;-62
2022/12/18 07:45:43;;;;;;;24.52;10.88;;;4.90;99.90;;;;;;5050658;28;20033;-61
2022/12/18 07:48:08;;;;;;;24.77;11.10;;;4.90;99.90;;;;;;5050791;28;20108;-61
2022/12/18 07:50:34;;;;;;;21.75;10.82;;;4.90;99.90;;;;;;5051405;28;20100;-60
2022/12/18 07:53:03;;;;;;;22.13;11.05;;;4.90;99.90;;;;;;5050936;28;20465;-61
2022/12/18 07:55:30;;;;;;;25.80;10.48;;;4.90;99.90;;;;;;5053607;28;20021;-61
2022/12/18 07:57:55;;;;;;;28.33;11.57;;;4.90;99.90;;;;;;5054910;28;20013;-62
2022/12/18 08:00:21;;;;;;;22.25;10.77;;;5.00;99.90;;;;;;5054941;28;20496;-62
2022/12/18 08:02:47;;;;;;;22.08;11.20;;;5.00;99.90;;;;;;5054624;28;20653;-62
2022/12/18 08:05:13;;;;;;;21.88;10.82;;;5.00;99.90;;;;;;5054841;28;20037;-63
2022/12/18 08:07:39;;;;;;;25.50;13.10;;;5.00;99.90;;;;;;5054934;28;20072;-63
2022/12/18 08:10:05;;;;;;;26.30;11.93;;;5.00;99.90;;;;;;5054927;28;20025;-62
2022/12/18 08:12:31;;;;;;;32.55;13.85;;;4.90;99.90;;;;;;5054758;28;20111;-61
2022/12/18 08:14:56;;;;;;;31.17;13.02;;;4.90;99.90;;;;;;5053322;28;20121;-62
2022/12/18 08:17:22;;;;;;;24.58;12.02;;;4.90;99.90;;;;;;5054363;28;20044;-62
2022/12/18 08:19:48;;;;;;;26.02;12.65;;;4.90;99.90;;;;;;5054555;28;20100;-62
2022/12/18 08:22:13;;;;;;;28.52;12.85;;;5.00;99.90;;;;;;5054514;28;20033;-63
2022/12/18 08:24:39;;;;;;;26.17;12.27;;;5.00;99.90;;;;;;5054279;28;20036;-63
2022/12/18 08:27:05;;;;;;;23.85;12.63;;;5.00;99.90;;;;;;5054215;28;20017;-62
2022/12/18 08:29:31;;;;;;;27.35;12.13;;;5.00;99.90;;;;;;5054401;28;20476;-61
2022/12/18 08:31:57;;;;;;;29.48;12.57;;;5.00;99.90;;;;;;5054362;28;20025;-62
2022/12/18 08:34:23;;;;;;;29.50;12.18;;;5.00;99.90;;;;;;5054381;28;20028;-64
2022/12/18 08:36:48;;;;;;;25.17;12.52;;;5.00;99.90;;;;;;5054144;28;20033;-62
2022/12/18 08:39:14;;;;;;;23.13;11.15;;;5.00;99.90;;;;;;5052902;28;20029;-62
2022/12/18 08:41:40;;;;;;;23.92;11.10;;;5.00;99.90;;;;;;5054445;28;20021;-62
2022/12/18 08:46:52;;;;;;;23.88;11.65;;;5.10;99.90;;;;;;5054363;28;20075;-62
2022/12/18 08:49:18;;;;;;;25.70;11.77;;;5.20;99.90;;;;;;5052240;28;20049;-62
2022/12/18 08:51:43;;;;;;;31.23;12.32;;;5.10;99.90;;;;;;5052369;28;20374;-61
2022/12/18 08:54:12;;;;;;;27.50;12.88;;;5.20;99.90;;;;;;5053899;28;20104;-61
2022/12/18 08:56:38;;;;;;;28.48;10.93;;;5.20;99.90;;;;;;5053805;28;20018;-61
2022/12/18 08:59:04;;;;;;;23.98;11.55;;;5.20;99.90;;;;;;5053991;28;20386;-61
2022/12/18 09:01:29;;;;;;;27.15;12.52;;;5.20;99.90;;;;;;5051637;28;20045;-62
2022/12/18 09:03:55;;;;;;;26.83;11.95;;;5.20;99.90;;;;;;5053557;28;20505;-63
2022/12/18 09:06:22;;;;;;;28.75;12.65;;;5.30;99.90;;;;;;5052027;28;20025;-63
2022/12/18 09:08:49;;;;;;;32.90;13.88;;;5.30;99.90;;;;;;5053575;28;20410;-62
2022/12/18 09:11:22;;;;;;;31.10;13.13;;;5.30;99.90;;;;;;5053333;28;20025;-63
2022/12/18 09:13:48;;;;;;;24.33;12.80;;;5.40;99.90;;;;;;5053317;28;20025;-62
2022/12/18 09:16:14;;;;;;;29.83;13.52;;;5.40;99.90;;;;;;5053109;28;20021;-62
2022/12/18 09:18:40;;;;;;;28.92;13.68;;;5.40;99.90;;;;;;5053294;28;20676;-62
2022/12/18 09:21:10;;;;;;;37.00;14.90;;;5.50;99.90;;;;;;5053176;28;20112;-62
2022/12/18 09:23:36;;;;;;;30.23;12.73;;;5.50;99.90;;;;;;5052310;28;20021;-62
2022/12/18 09:26:02;;;;;;;32.75;13.93;;;5.50;99.90;;;;;;5054322;28;20057;-62
2022/12/18 09:28:28;;;;;;;27.95;13.32;;;5.50;99.90;;;;;;5062138;28;20071;-61
2022/12/18 09:30:54;;;;;;;36.45;16.17;;;5.50;99.90;;;;;;5052993;28;20111;-60
2022/12/18 09:33:19;;;;;;;34.05;14.70;;;5.60;99.90;;;;;;5053215;28;20017;-62
2022/12/18 09:35:46;;;;;;;32.05;15.60;;;5.60;99.90;;;;;;5053013;28;20024;-62
2022/12/18 09:38:14;;;;;;;32.33;14.35;;;5.70;99.90;;;;;;5051069;28;20033;-61
2022/12/18 09:40:44;;;;;;;33.35;15.07;;;5.70;99.90;;;;;;5052707;28;20031;-61
2022/12/18 09:43:27;;;;;;;28.80;14.48;;;5.70;99.90;;;;;;5072754;28;20027;-60
2022/12/18 09:45:58;;;;;;;34.95;14.93;;;5.70;99.90;;;;;;5072572;28;20041;-60
2022/12/18 09:48:47;;;;;;;28.60;14.18;;;5.70;99.90;;;;;;5072169;28;20024;-61
2022/12/18 09:51:20;;;;;;;33.35;14.38;;;5.80;99.90;;;;;;5072965;28;20028;-61
2022/12/18 09:53:52;;;;;;;29.13;13.75;;;5.80;99.90;;;;;;5060248;28;20017;-59
2022/12/18 09:56:22;;;;;;;29.90;13.88;;;5.80;99.90;;;;;;5051477;28;20473;-61
2022/12/18 09:59:02;;;;;;;27.65;13.02;;;5.90;99.90;;;;;;5052496;28;20021;-61
2022/12/18 10:01:29;;;;;;;30.75;12.98;;;6.00;99.90;;;;;;5052356;28;20124;-59
2022/12/18 10:03:56;;;;;;;28.10;12.98;;;6.00;99.90;;;;;;5052556;28;20021;-60
2022/12/18 10:06:26;;;;;;;28.92;13.70;;;6.00;99.90;;;;;;5052233;28;20243;-60
2022/12/18 10:09:14;;;;;;;33.65;14.98;;;6.00;99.90;;;;;;5052653;28;20100;-60
2022/12/18 10:11:53;;;;;;;30.88;14.55;;;6.10;99.90;;;;;;5052220;28;20028;-62
2022/12/18 10:14:45;;;;;;;29.25;13.18;;;6.10;99.90;;;;;;5052296;28;20441;-60
2022/12/18 10:17:24;;;;;;;25.07;13.20;;;6.10;99.90;;;;;;5048149;28;20044;-60
2022/12/18 10:19:59;;;;;;;27.65;13.63;;;6.20;99.90;;;;;;5052205;28;20029;-61
2022/12/18 10:22:34;;;;;;;28.48;13.10;;;6.20;99.90;;;;;;5052088;28;20025;-60
2022/12/18 10:25:37;;;;;;;25.23;11.85;;;6.20;99.90;;;;;;5051809;28;20491;-60
2022/12/18 10:28:17;;;;;;;26.65;12.55;;;6.30;99.90;;;;;;5051755;28;20029;-60
2022/12/18 10:30:43;;;;;;;28.38;12.90;;;6.30;99.90;;;;;;5052081;28;20106;-61
2022/12/18 10:33:17;;;;;;;24.33;10.70;;;6.30;99.90;;;;;;5051828;28;20017;-70
2022/12/18 10:35:44;;;;;;;26.05;12.77;;;6.40;99.90;;;;;;5050713;28;20035;-69
2022/12/18 10:38:16;;;;;;;29.77;12.65;;;6.40;99.90;;;;;;5049767;28;20052;-68
2022/12/18 10:40:51;;;;;;;26.42;12.02;;;6.30;99.90;;;;;;5059768;28;20459;-67
2022/12/18 10:43:26;;;;;;;23.75;11.48;;;6.30;99.90;;;;;;5056292;28;20061;-67
2022/12/18 10:46:08;;;;;;;27.65;12.23;;;6.40;99.90;;;;;;5063740;28;20544;-67
2022/12/18 10:48:38;;;;;;;26.40;11.55;;;6.40;99.90;;;;;;5071528;28;20112;-69
2022/12/18 10:51:06;;;;;;;22.98;11.13;;;6.40;99.90;;;;;;5061576;28;20036;-68
2022/12/18 10:53:34;;;;;;;26.38;11.55;;;6.40;99.90;;;;;;5051212;28;20032;-67
2022/12/18 10:56:05;;;;;;;22.90;11.02;;;6.40;99.90;;;;;;5046269;28;20025;-66
2022/12/18 10:58:33;;;;;;;25.05;12.13;;;6.40;99.90;;;;;;5051276;28;20109;-68
2022/12/18 11:01:24;;;;;;;29.33;12.55;;;6.40;99.90;;;;;;5051414;28;20025;-66
2022/12/18 11:03:49;;;;;;;26.27;12.95;;;6.40;99.90;;;;;;5031195;28;20160;-66
2022/12/18 11:06:24;;;;;;;27.48;13.18;;;6.40;99.90;;;;;;5037845;28;20517;-67
2022/12/18 11:09:02;;;;;;;27.67;13.82;;;6.40;99.90;;;;;;5050918;28;20061;-66
2022/12/18 11:11:28;;;;;;;27.80;12.18;;;6.40;99.90;;;;;;5057825;28;20351;-67
2022/12/18 11:14:17;;;;;;;25.40;12.20;;;6.30;99.90;;;;;;5068790;28;20021;-67
2022/12/18 11:16:48;;;;;;;29.45;13.50;;;6.30;99.90;;;;;;5068232;28;20028;-67
2022/12/18 11:19:32;;;;;;;29.25;13.93;;;6.30;99.90;;;;;;5071394;28;20108;-68
2022/12/18 11:22:00;;;;;;;30.70;13.60;;;6.30;99.90;;;;;;5061561;28;20034;-67
2022/12/18 11:24:31;;;;;;;36.70;15.25;;;6.20;99.90;;;;;;5069184;28;20044;-68
2022/12/18 11:27:00;;;;;;;28.92;14.65;;;6.20;99.90;;;;;;5041632;28;20032;-67
2022/12/18 11:29:36;;;;;;;32.35;14.85;;;6.20;99.90;;;;;;5064700;28;20071;-68
2022/12/18 11:32:38;;;;;;;28.88;14.77;;;6.20;99.90;;;;;;5060117;28;20058;-67
2022/12/18 11:35:04;;;;;;;32.35;14.43;;;6.20;1.00;;;;;;5041844;28;20037;-68
2022/12/18 11:37:31;;;;;;;30.92;12.95;;;6.20;1.00;;;;;;5068667;28;20351;-67
2022/12/18 11:40:13;;;;;;;31.27;14.35;;;6.30;1.00;;;;;;5062514;28;20502;-67
2022/12/18 11:42:45;;;;;;;36.88;14.88;;;6.30;1.00;;;;;;5047489;28;20025;-67
2022/12/18 11:45:11;;;;;;;40.13;15.35;;;6.30;1.00;;;;;;5067124;28;20051;-66
2022/12/18 11:48:02;;;;;;;34.20;15.15;;;6.20;29.80;;;;;;5050754;28;20056;-64
2022/12/18 11:50:36;;;;;;;30.75;13.95;;;6.30;70.80;;;;;;5048935;28;20500;-65
2022/12/18 11:53:02;;;;;;;28.80;13.43;;;6.30;96.30;;;;;;5050622;28;20029;-65
2022/12/18 11:55:51;;;;;;;27.95;12.55;;;6.30;99.90;;;;;;5067962;28;20059;-61
2022/12/18 11:58:42;;;;;;;28.30;12.32;;;6.30;99.90;;;;;;5024988;28;20116;-59
2022/12/18 12:01:16;;;;;;;28.50;12.82;;;6.30;99.90;;;;;;5030270;28;20509;-59
2022/12/18 12:04:19;;;;;;;28.95;12.82;;;6.40;99.90;;;;;;5038261;28;20083;-59
2022/12/18 12:06:52;;;;;;;28.20;11.65;;;6.40;99.90;;;;;;5050017;28;20025;-59
2022/12/18 12:09:47;;;;;;;29.98;12.77;;;6.40;99.90;;;;;;5050321;28;20029;-58
2022/12/18 12:12:50;;;;;;;26.67;12.90;;;6.40;99.90;;;;;;5050318;28;20029;-59
2022/12/18 12:15:19;;;;;;;29.63;12.45;;;6.40;99.90;;;;;;5050225;28;20029;-59
2022/12/18 12:17:55;;;;;;;28.88;12.82;;;6.40;99.90;;;;;;5050343;28;20021;-60
2022/12/18 12:20:38;;;;;;;36.75;13.38;;;6.40;99.90;;;;;;5050370;28;20021;-59
2022/12/18 12:23:36;;;;;;;27.48;13.07;;;6.40;99.90;;;;;;5050164;28;20021;-59
2022/12/18 12:26:16;;;;;;;30.63;12.45;;;6.40;99.90;;;;;;5050413;28;20083;-59
2022/12/18 12:28:59;;;;;;;30.33;13.70;;;6.40;99.90;;;;;;5049219;28;20118;-59
2022/12/18 12:31:46;;;;;;;26.73;12.35;;;6.40;99.90;;;;;;5050142;28;20021;-60
2022/12/18 12:34:23;;;;;;;26.52;12.18;;;6.40;99.90;;;;;;5050203;28;20709;-60
2022/12/18 12:37:16;;;;;;;27.10;13.25;;;6.40;99.90;;;;;;5050327;28;20032;-59
2022/12/18 12:39:45;;;;;;;27.67;13.07;;;6.50;99.90;;;;;;5050005;28;20050;-60
2022/12/18 12:45:28;;;;;;;28.95;12.88;;;6.50;99.90;;;;;;5053970;28;20051;-59
2022/12/18 12:47:56;;;;;;;31.48;13.10;;;6.50;1.00;;;;;;5053667;28;20441;-60
2022/12/18 12:50:23;;;;;;;32.63;13.32;;;6.50;1.00;;;;;;5053785;28;20029;-60
2022/12/18 12:52:53;;;;;;;33.13;13.02;;;6.50;1.00;;;;;;5053618;28;20045;-61
2022/12/18 12:55:27;;;;;;;26.88;13.63;;;6.60;1.00;;;;;;5053700;28;20053;-61
2022/12/18 12:58:03;;;;;;;25.83;11.85;;;6.60;44.20;;;;;;5053746;28;20021;-61
2022/12/18 13:00:39;;;;;;;30.70;12.68;;;6.60;89.20;;;;;;5053448;28;20029;-59
2022/12/18 13:03:40;;;;;;;30.08;13.07;;;6.60;98.10;;;;;;5053048;28;20037;-61
2022/12/18 13:06:30;;;;;;;25.65;12.50;;;6.70;99.90;;;;;;5053432;28;20037;-61
2022/12/18 13:08:58;;;;;;;23.17;12.63;;;6.70;99.90;;;;;;5053329;28;20021;-60
2022/12/18 13:14:36;;;;;;;25.52;12.48;;;6.80;99.90;;;;;;5051285;28;20086;-60